Time;durP1;ratioP1;P1;durP2;ratioP2;P2;SDS_P1;SDS_P2;PMS_P1;PMS_P2;Temp;Humidity;BMP_temperature;BMP_pressure;BME280_temperature;BME280_humidity;BME280_pressure;Samples;Min_cycle;Max_cycle;Signal;HPM_P1;HPM_P2
2022/11/28 00:01:59;;;;;;;;;;;5.80;99.90;;;;;;5000430;28;20132;-80
2022/11/28 00:04:25;;;;;;;1.15;1.10;;;5.50;99.90;;;;;;4996811;28;19921;-80
2022/11/28 00:06:51;;;;;;;0.77;0.77;;;5.80;99.90;;;;;;4985117;28;20904;-80
2022/11/28 00:09:18;;;;;;;0.60;0.60;;;5.60;99.90;;;;;;4984178;28;20662;-78
2022/11/28 00:11:47;;;;;;;0.60;0.60;;;5.50;99.90;;;;;;5000154;28;20104;-78
2022/11/28 00:14:13;;;;;;;0.93;0.93;;;5.50;99.90;;;;;;4982566;28;20148;-80
2022/11/28 00:16:39;;;;;;;0.50;0.50;;;5.50;99.90;;;;;;4997962;28;20038;-77
2022/11/28 00:19:06;;;;;;;0.52;0.52;;;5.50;99.90;;;;;;4999271;28;20088;-77
2022/11/28 00:21:32;;;;;;;0.60;0.60;;;5.50;99.90;;;;;;5018398;28;20063;-77
2022/11/28 00:23:58;;;;;;;0.40;0.40;;;5.70;99.90;;;;;;4986045;28;20049;-79
2022/11/28 00:26:30;;;;;;;0.57;0.57;;;5.50;99.90;;;;;;5008421;28;20103;-77
2022/11/28 00:28:57;;;;;;;0.88;0.88;;;5.50;99.90;;;;;;4988293;28;20076;-77
2022/11/28 00:31:26;;;;;;;0.60;0.60;;;5.50;99.90;;;;;;5005243;28;21224;-83
2022/11/28 00:33:52;;;;;;;0.63;0.63;;;5.50;99.90;;;;;;5001274;28;20046;-79
2022/11/28 00:36:19;;;;;;;0.60;0.60;;;5.60;99.90;;;;;;4997692;28;20073;-79
2022/11/28 00:38:45;;;;;;;0.63;0.63;;;5.50;99.90;;;;;;4998442;28;20052;-78
2022/11/28 00:41:12;;;;;;;;;;;5.50;99.90;;;;;;4984424;28;20045;-79
2022/11/28 00:43:39;;;;;;;0.63;0.63;;;5.50;99.90;;;;;;5008987;28;19924;-79
2022/11/28 00:46:06;;;;;;;0.50;0.50;;;5.50;99.90;;;;;;5010666;28;20038;-79
2022/11/28 00:48:37;;;;;;;0.60;0.60;;;5.50;99.90;;;;;;5000455;28;20053;-79
2022/11/28 00:51:09;;;;;;;0.55;0.55;;;5.60;99.90;;;;;;5001170;28;20041;-78
2022/11/28 00:53:35;;;;;;;0.60;0.60;;;5.50;99.90;;;;;;4984599;28;21850;-80
2022/11/28 00:56:04;;;;;;;0.60;0.60;;;5.60;99.90;;;;;;5000121;28;20044;-78
2022/11/28 00:58:31;;;;;;;0.70;0.70;;;5.60;99.90;;;;;;4988334;28;20073;-78
2022/11/28 01:01:05;;;;;;;0.63;0.63;;;5.60;99.90;;;;;;5018946;28;20075;-79
2022/11/28 01:03:31;;;;;;;0.60;0.60;;;5.60;99.90;;;;;;5001175;28;20079;-78
2022/11/28 01:05:57;;;;;;;0.47;0.47;;;5.60;99.90;;;;;;5003176;28;20127;-78
2022/11/28 01:08:22;;;;;;;0.50;0.50;;;5.60;99.90;;;;;;5015482;28;20041;-77
2022/11/28 01:10:48;;;;;;;0.57;0.57;;;5.60;99.90;;;;;;5001240;28;20041;-78
2022/11/28 01:13:14;;;;;;;0.50;0.50;;;5.60;99.90;;;;;;5001936;28;20037;-79
2022/11/28 01:15:40;;;;;;;0.50;0.50;;;5.60;99.90;;;;;;5003768;28;20121;-78
2022/11/28 01:18:06;;;;;;;0.65;0.65;;;5.60;99.90;;;;;;5003781;28;20056;-78
2022/11/28 01:20:32;;;;;;;0.60;0.60;;;5.70;99.90;;;;;;5004453;28;20041;-78
2022/11/28 01:22:58;;;;;;;0.50;0.50;;;5.60;99.90;;;;;;5006597;28;20123;-78
2022/11/28 01:25:24;;;;;;;0.60;0.60;;;5.70;99.90;;;;;;5008372;28;20052;-78
2022/11/28 01:27:50;;;;;;;0.70;0.70;;;5.60;99.90;;;;;;5005204;28;21602;-77
2022/11/28 01:30:15;;;;;;;0.40;0.40;;;5.60;99.90;;;;;;5002660;28;20131;-78
2022/11/28 01:32:41;;;;;;;0.60;0.60;;;5.70;99.90;;;;;;5008685;28;20060;-77
2022/11/28 01:35:07;;;;;;;0.50;0.50;;;5.60;99.90;;;;;;5018079;28;20037;-79
2022/11/28 01:37:33;;;;;;;;;;;5.70;99.90;;;;;;4991027;28;20084;-77
2022/11/28 01:39:58;;;;;;;0.77;0.77;;;5.70;99.90;;;;;;5006643;28;20015;-78
2022/11/28 01:42:24;;;;;;;0.60;0.60;;;5.70;99.90;;;;;;5017260;28;20049;-78
2022/11/28 01:44:53;;;;;;;0.60;0.60;;;5.70;99.90;;;;;;4990275;28;20099;-78
2022/11/28 01:47:26;;;;;;;1.00;0.93;;;5.70;99.90;;;;;;5004328;28;20136;-78
2022/11/28 01:49:53;;;;;;;0.57;0.57;;;5.90;99.90;;;;;;5007225;28;20128;-78
2022/11/28 01:52:20;;;;;;;0.40;0.40;;;5.70;99.90;;;;;;5018519;28;20839;-78
2022/11/28 01:54:51;;;;;;;0.60;0.60;;;5.70;99.90;;;;;;5010194;28;20098;-78
2022/11/28 01:57:20;;;;;;;0.50;0.50;;;5.70;99.90;;;;;;5009694;28;20044;-78
2022/11/28 01:59:57;;;;;;;0.60;0.60;;;5.70;99.90;;;;;;5002781;28;20144;-78
2022/11/28 02:02:33;;;;;;;0.60;0.60;;;5.70;99.90;;;;;;5001280;28;20045;-79
2022/11/28 02:05:00;;;;;;;0.77;0.77;;;5.70;99.90;;;;;;5017933;28;20056;-78
2022/11/28 02:07:26;;;;;;;0.68;0.68;;;5.70;99.90;;;;;;5000153;28;20029;-79
2022/11/28 02:09:52;;;;;;;0.50;0.50;;;5.70;99.90;;;;;;5003551;28;21074;-78
2022/11/28 02:12:33;;;;;;;0.70;0.70;;;5.70;99.90;;;;;;5018998;28;20148;-78
2022/11/28 02:15:25;;;;;;;0.60;0.60;;;5.80;99.90;;;;;;5004753;28;20037;-78
2022/11/28 02:18:06;;;;;;;0.50;0.50;;;5.80;99.90;;;;;;5006775;28;20053;-77
2022/11/28 02:21:02;;;;;;;0.65;0.65;;;5.80;99.90;;;;;;5018620;28;20056;-77
2022/11/28 02:23:36;;;;;;;0.60;0.60;;;5.80;99.90;;;;;;5017491;28;20053;-78
2022/11/28 02:26:26;;;;;;;0.60;0.60;;;5.80;99.90;;;;;;4984431;28;20060;-77
2022/11/28 02:29:09;;;;;;;0.60;0.60;;;5.80;99.90;;;;;;5005395;28;20121;-77
2022/11/28 02:31:38;;;;;;;0.80;0.80;;;5.80;99.90;;;;;;5008122;28;20069;-75
2022/11/28 02:34:16;;;;;;;0.57;0.57;;;5.80;99.90;;;;;;5011646;28;20042;-77
2022/11/28 02:37:00;;;;;;;0.60;0.60;;;6.00;99.90;;;;;;5010792;28;20046;-79
2022/11/28 02:39:56;;;;;;;2.55;0.95;;;5.80;99.90;;;;;;5006224;28;20060;-78
2022/11/28 02:42:57;;;;;;;0.60;0.60;;;5.70;99.90;;;;;;5012592;28;20037;-78
2022/11/28 02:45:29;;;;;;;0.60;0.60;;;5.80;99.90;;;;;;4986239;28;20409;-77
2022/11/28 02:48:06;;;;;;;0.57;0.57;;;5.80;99.90;;;;;;5013639;28;20091;-77
2022/11/28 02:50:46;;;;;;;0.60;0.60;;;5.80;99.90;;;;;;5010794;28;20045;-78
2022/11/28 02:53:17;;;;;;;0.50;0.50;;;5.80;99.90;;;;;;5012695;28;20418;-78
2022/11/28 02:55:43;;;;;;;0.82;0.82;;;5.80;99.90;;;;;;5013683;28;20613;-78
2022/11/28 02:58:10;;;;;;;;;;;5.70;99.90;;;;;;5025589;28;20042;-79
2022/11/28 03:00:38;;;;;;;0.52;0.52;;;5.70;99.90;;;;;;5010108;28;19970;-77
2022/11/28 03:03:22;;;;;;;0.70;0.70;;;5.80;99.90;;;;;;5005979;28;20049;-77
2022/11/28 03:05:59;;;;;;;0.60;0.60;;;5.80;99.90;;;;;;5011594;28;20107;-78
2022/11/28 03:08:43;;;;;;;1.45;1.40;;;5.80;99.90;;;;;;5004999;28;20052;-79
2022/11/28 03:11:36;;;;;;;1.65;1.55;;;5.80;99.90;;;;;;5007658;28;20116;-78
2022/11/28 03:14:22;;;;;;;0.60;0.60;;;5.80;99.90;;;;;;5021777;28;20045;-80
2022/11/28 03:17:02;;;;;;;;;;;5.80;99.90;;;;;;5013366;28;20068;-78
2022/11/28 03:19:35;;;;;;;1.45;1.45;;;6.40;99.90;;;;;;5010237;28;19925;-78
2022/11/28 03:22:24;;;;;;;1.20;0.98;;;5.80;99.90;;;;;;5008928;28;20982;-78
2022/11/28 03:24:58;;;;;;;0.50;0.50;;;5.80;99.90;;;;;;5000850;28;20057;-79
2022/11/28 03:27:40;;;;;;;0.55;0.55;;;5.80;99.90;;;;;;5024106;28;20056;-78
2022/11/28 03:30:16;;;;;;;0.68;0.68;;;5.80;99.90;;;;;;5012520;28;20033;-78
2022/11/28 03:32:43;;;;;;;0.57;0.57;;;5.80;99.90;;;;;;5011518;28;20144;-78
2022/11/28 03:35:22;;;;;;;1.05;1.05;;;5.80;99.90;;;;;;4995021;28;20825;-80
2022/11/28 03:37:59;;;;;;;0.60;0.60;;;5.80;99.90;;;;;;5010027;28;20059;-78
2022/11/28 03:40:31;;;;;;;0.60;0.60;;;5.80;99.90;;;;;;5006979;28;20123;-77
2022/11/28 03:43:04;;;;;;;0.52;0.52;;;5.80;99.90;;;;;;5011456;28;20033;-79
2022/11/28 03:45:39;;;;;;;0.60;0.60;;;5.80;99.90;;;;;;5005535;28;20045;-78
2022/11/28 03:48:16;;;;;;;0.60;0.60;;;5.80;99.90;;;;;;5024442;28;20045;-78
2022/11/28 03:50:47;;;;;;;1.02;1.00;;;5.80;99.90;;;;;;4992988;28;20358;-78
2022/11/28 03:53:39;;;;;;;0.50;0.50;;;5.90;99.90;;;;;;5003954;28;20040;-77
2022/11/28 03:56:16;;;;;;;0.60;0.60;;;5.80;99.90;;;;;;5006451;28;20045;-77
2022/11/28 03:58:58;;;;;;;1.52;1.45;;;5.90;99.90;;;;;;5008971;28;20041;-77
2022/11/28 04:01:30;;;;;;;1.00;0.60;;;5.90;99.90;;;;;;5007843;28;20069;-77
2022/11/28 04:04:04;;;;;;;0.50;0.50;;;5.90;99.90;;;;;;5009213;28;20056;-78
2022/11/28 04:06:52;;;;;;;0.43;0.43;;;5.90;99.90;;;;;;5006401;28;20045;-79
2022/11/28 04:09:40;;;;;;;0.60;0.60;;;6.00;99.90;;;;;;5019438;28;20133;-79
2022/11/28 04:12:15;;;;;;;0.50;0.50;;;6.80;99.90;;;;;;5008554;28;20088;-78
2022/11/28 04:14:47;;;;;;;0.90;0.90;;;6.00;99.90;;;;;;5021383;28;20056;-78
2022/11/28 04:17:28;;;;;;;1.17;1.08;;;6.00;99.90;;;;;;5019631;28;20094;-77
2022/11/28 04:20:00;;;;;;;0.60;0.60;;;6.50;99.90;;;;;;5018405;28;20064;-77
2022/11/28 04:22:43;;;;;;;0.80;0.80;;;6.10;99.90;;;;;;5017911;28;20109;-79
2022/11/28 04:25:13;;;;;;;0.50;0.50;;;6.10;99.90;;;;;;5008472;28;20143;-77
2022/11/28 04:28:02;;;;;;;0.98;0.98;;;6.10;99.90;;;;;;5003463;28;20041;-78
2022/11/28 04:30:28;;;;;;;0.70;0.70;;;6.10;99.90;;;;;;5007720;28;20418;-77
2022/11/28 04:32:59;;;;;;;0.70;0.70;;;6.10;99.90;;;;;;5004764;28;20053;-79
2022/11/28 04:35:36;;;;;;;0.40;0.40;;;6.20;99.90;;;;;;5007402;28;20394;-78
2022/11/28 04:38:05;;;;;;;0.70;0.70;;;6.20;99.90;;;;;;5023264;28;20751;-78
2022/11/28 04:40:37;;;;;;;1.25;1.25;;;6.20;99.90;;;;;;5007883;28;20041;-78
2022/11/28 04:43:11;;;;;;;1.00;1.00;;;6.50;99.90;;;;;;5009756;28;20468;-78
2022/11/28 04:45:45;;;;;;;1.10;1.10;;;6.20;99.90;;;;;;5018912;28;20076;-78
2022/11/28 04:48:11;;;;;;;0.82;0.82;;;6.20;99.90;;;;;;5021057;28;20491;-79
2022/11/28 04:51:00;;;;;;;0.60;0.60;;;6.30;99.90;;;;;;5002524;28;20059;-78
2022/11/28 04:53:48;;;;;;;1.02;1.02;;;6.30;99.90;;;;;;5009925;28;20545;-79
2022/11/28 04:56:27;;;;;;;0.80;0.80;;;6.30;99.90;;;;;;5006524;28;20127;-78
2022/11/28 04:58:52;;;;;;;1.38;1.27;;;6.30;99.90;;;;;;5006662;28;20154;-79
2022/11/28 05:01:24;;;;;;;0.63;0.63;;;6.40;99.90;;;;;;5018935;28;20195;-79
2022/11/28 05:03:50;;;;;;;0.65;0.65;;;6.40;99.90;;;;;;5007524;28;20049;-76
2022/11/28 05:06:30;;;;;;;0.63;0.63;;;6.40;99.90;;;;;;5019311;28;20041;-78
2022/11/28 05:08:56;;;;;;;0.73;0.73;;;6.50;99.90;;;;;;5027989;28;20458;-79
2022/11/28 05:11:22;;;;;;;0.70;0.70;;;6.50;99.90;;;;;;5020430;28;20041;-78
2022/11/28 05:13:48;;;;;;;0.60;0.60;;;6.50;99.90;;;;;;5011025;28;20040;-79
2022/11/28 05:16:14;;;;;;;0.95;0.93;;;6.50;99.90;;;;;;4991577;28;20491;-78
2022/11/28 05:18:41;;;;;;;1.08;0.90;;;6.50;99.90;;;;;;5007019;28;20149;-78
2022/11/28 05:21:07;;;;;;;2.13;2.03;;;6.60;99.90;;;;;;5002761;28;20534;-78
2022/11/28 05:23:42;;;;;;;0.50;0.50;;;6.60;99.90;;;;;;5011081;28;20509;-78
2022/11/28 05:26:13;;;;;;;3.42;1.38;;;6.60;99.90;;;;;;5018801;28;21475;-78
2022/11/28 05:28:38;;;;;;;0.75;0.75;;;6.60;99.90;;;;;;5017933;28;20046;-78
2022/11/28 05:31:04;;;;;;;0.50;0.50;;;6.70;99.90;;;;;;5007014;28;20034;-78
2022/11/28 05:33:31;;;;;;;0.90;0.90;;;6.70;99.90;;;;;;5003687;28;20479;-79
2022/11/28 05:36:09;;;;;;;0.70;0.70;;;6.70;99.90;;;;;;4996983;28;20056;-78
2022/11/28 05:38:35;;;;;;;0.60;0.60;;;6.70;99.90;;;;;;5018248;28;20049;-78
2022/11/28 05:41:02;;;;;;;1.23;1.20;;;6.70;99.90;;;;;;5016780;28;20049;-78
2022/11/28 05:43:30;;;;;;;0.45;0.45;;;6.80;99.90;;;;;;5009925;28;20091;-79
2022/11/28 05:45:56;;;;;;;2.30;2.20;;;6.80;99.90;;;;;;5007834;28;20046;-78
2022/11/28 05:48:22;;;;;;;0.98;0.90;;;7.00;99.90;;;;;;5004295;28;20057;-77
2022/11/28 05:50:51;;;;;;;0.80;0.80;;;6.80;99.90;;;;;;4990214;28;20123;-76
2022/11/28 05:53:18;;;;;;;1.02;1.02;;;6.80;99.90;;;;;;5003959;28;20065;-77
2022/11/28 05:55:45;;;;;;;1.70;1.58;;;6.80;99.90;;;;;;5005286;28;20490;-77
2022/11/28 05:58:11;;;;;;;3.10;1.35;;;6.90;99.90;;;;;;5005110;28;20029;-77
2022/11/28 06:00:37;;;;;;;1.40;1.35;;;6.90;99.90;;;;;;4990145;28;20720;-77
2022/11/28 06:03:04;;;;;;;0.50;0.50;;;6.90;99.90;;;;;;5006916;28;20077;-77
2022/11/28 06:05:30;;;;;;;0.60;0.60;;;6.90;99.90;;;;;;4999836;28;20041;-77
2022/11/28 06:07:55;;;;;;;1.45;0.95;;;6.90;99.90;;;;;;5005633;28;20057;-77
2022/11/28 06:10:21;;;;;;;0.68;0.68;;;6.90;99.90;;;;;;5004308;28;20057;-77
2022/11/28 06:12:48;;;;;;;0.80;0.80;;;7.00;99.90;;;;;;5004320;28;20156;-77
2022/11/28 06:15:13;;;;;;;1.20;1.10;;;6.90;99.90;;;;;;5000081;28;20045;-77
2022/11/28 06:17:39;;;;;;;0.63;0.63;;;7.00;99.90;;;;;;5003301;28;20058;-76
2022/11/28 06:20:06;;;;;;;0.63;0.63;;;7.00;99.90;;;;;;4999475;28;20057;-77
2022/11/28 06:22:33;;;;;;;0.73;0.73;;;7.00;99.90;;;;;;4997197;28;20049;-77
2022/11/28 06:24:58;;;;;;;0.70;0.70;;;7.00;99.90;;;;;;4996585;28;20045;-76
2022/11/28 06:27:24;;;;;;;0.90;0.90;;;7.00;99.90;;;;;;4996685;28;20058;-76
2022/11/28 06:29:50;;;;;;;0.77;0.70;;;7.10;99.90;;;;;;4997085;28;20099;-76
2022/11/28 06:32:15;;;;;;;0.85;0.85;;;7.00;99.90;;;;;;4996494;28;20038;-76
2022/11/28 06:34:41;;;;;;;0.60;0.60;;;7.00;99.90;;;;;;4981335;28;20157;-76
2022/11/28 06:37:07;;;;;;;0.68;0.68;;;7.10;99.90;;;;;;4997583;28;20050;-76
2022/11/28 06:39:32;;;;;;;0.70;0.70;;;7.10;99.90;;;;;;4998067;28;20431;-77
2022/11/28 06:41:58;;;;;;;1.02;1.02;;;7.10;99.90;;;;;;4998107;28;20388;-76
2022/11/28 06:44:24;;;;;;;1.23;0.75;;;7.10;99.90;;;;;;4996105;28;20100;-76
2022/11/28 06:46:49;;;;;;;0.43;0.43;;;7.10;99.90;;;;;;4996779;28;20050;-78
2022/11/28 06:49:15;;;;;;;0.90;0.90;;;7.10;99.90;;;;;;4997625;28;20765;-78
2022/11/28 06:51:41;;;;;;;1.27;1.27;;;7.10;99.90;;;;;;4980664;28;20808;-77
2022/11/28 06:54:08;;;;;;;0.82;0.70;;;7.10;99.90;;;;;;4997767;28;20044;-77
2022/11/28 06:56:33;;;;;;;0.70;0.70;;;7.20;99.90;;;;;;4998899;28;20096;-77
2022/11/28 06:58:59;;;;;;;0.60;0.60;;;7.10;99.90;;;;;;4997248;28;20049;-78
2022/11/28 07:01:27;;;;;;;0.60;0.60;;;7.20;99.90;;;;;;4985146;28;20057;-77
2022/11/28 07:03:53;;;;;;;0.70;0.70;;;7.40;99.90;;;;;;4998432;28;20088;-77
2022/11/28 07:06:20;;;;;;;0.80;0.80;;;7.20;99.90;;;;;;4997101;28;20513;-77
2022/11/28 07:08:46;;;;;;;0.65;0.65;;;7.20;99.90;;;;;;4999191;28;20053;-79
2022/11/28 07:11:21;;;;;;;0.50;0.50;;;7.20;99.90;;;;;;4994804;28;20518;-79
2022/11/28 07:13:48;;;;;;;0.65;0.65;;;7.20;99.90;;;;;;4995857;28;20038;-79
2022/11/28 07:16:22;;;;;;;0.60;0.60;;;7.20;99.90;;;;;;4997662;28;20403;-78
2022/11/28 07:18:49;;;;;;;0.60;0.60;;;7.20;99.90;;;;;;5006270;28;20056;-78
2022/11/28 07:21:16;;;;;;;0.88;0.88;;;7.20;99.90;;;;;;5002584;28;20128;-78
2022/11/28 07:23:42;;;;;;;0.50;0.50;;;7.20;99.90;;;;;;4998132;28;20057;-78
2022/11/28 07:26:09;;;;;;;0.45;0.45;;;7.20;99.90;;;;;;4983946;28;20081;-77
2022/11/28 07:28:35;;;;;;;0.88;0.88;;;7.20;99.90;;;;;;5000561;28;20060;-77
2022/11/28 07:31:05;;;;;;;4.75;1.95;;;7.30;99.90;;;;;;5004687;28;20108;-77
2022/11/28 07:33:32;;;;;;;0.60;0.60;;;7.20;99.90;;;;;;5019538;28;20045;-78
2022/11/28 07:36:06;;;;;;;2.15;1.30;;;7.20;99.90;;;;;;4999029;28;20066;-77
2022/11/28 07:38:32;;;;;;;0.60;0.60;;;7.20;99.90;;;;;;4999251;28;20672;-78
2022/11/28 07:41:11;;;;;;;;;;;7.20;99.90;;;;;;5000543;28;20095;-78
2022/11/28 07:43:37;;;;;;;0.73;0.73;;;7.20;99.90;;;;;;4983914;28;19921;-78
2022/11/28 07:46:06;;;;;;;1.05;1.05;;;7.30;99.90;;;;;;4982521;28;20054;-78
2022/11/28 07:48:32;;;;;;;0.40;0.40;;;7.20;99.90;;;;;;5000773;28;20054;-77
2022/11/28 07:50:58;;;;;;;1.02;1.02;;;7.20;99.90;;;;;;5001106;28;20631;-78
2022/11/28 07:53:23;;;;;;;0.52;0.52;;;7.30;99.90;;;;;;4999571;28;20041;-77
2022/11/28 07:55:49;;;;;;;0.90;0.90;;;7.30;99.90;;;;;;4982190;28;20044;-77
2022/11/28 07:58:15;;;;;;;0.55;0.55;;;7.50;99.90;;;;;;4998864;28;20117;-78
2022/11/28 08:00:40;;;;;;;1.05;0.98;;;7.30;99.90;;;;;;4984474;28;20419;-78
2022/11/28 08:03:06;;;;;;;0.60;0.60;;;7.30;99.90;;;;;;4967714;28;20376;-77
2022/11/28 08:05:32;;;;;;;0.40;0.40;;;7.30;99.90;;;;;;5014909;28;20083;-78
2022/11/28 08:07:58;;;;;;;0.45;0.45;;;7.30;99.90;;;;;;4980583;28;20042;-78
2022/11/28 08:10:24;;;;;;;1.35;1.10;;;7.30;99.90;;;;;;4981679;28;20046;-77
2022/11/28 08:12:49;;;;;;;0.85;0.85;;;7.30;99.90;;;;;;5016570;28;20049;-77
2022/11/28 08:15:15;;;;;;;0.52;0.52;;;7.30;99.90;;;;;;4999832;28;20356;-78
2022/11/28 08:17:41;;;;;;;1.05;1.05;;;7.30;99.90;;;;;;4997213;28;20062;-78
2022/11/28 08:20:07;;;;;;;0.60;0.60;;;7.30;99.90;;;;;;4996540;28;20165;-77
2022/11/28 08:22:33;;;;;;;0.77;0.77;;;7.30;99.90;;;;;;5002431;28;20089;-78
2022/11/28 08:24:59;;;;;;;0.63;0.63;;;7.40;99.90;;;;;;4979333;28;20184;-77
2022/11/28 08:27:25;;;;;;;0.60;0.60;;;7.40;99.90;;;;;;4996000;28;20096;-79
2022/11/28 08:29:50;;;;;;;0.40;0.40;;;7.40;99.90;;;;;;5020189;28;20536;-79
2022/11/28 08:32:17;;;;;;;1.48;1.10;;;7.40;99.90;;;;;;5007830;28;20046;-81
2022/11/28 08:34:42;;;;;;;0.63;0.63;;;7.40;99.90;;;;;;4991718;28;20042;-80
2022/11/28 08:37:08;;;;;;;0.57;0.57;;;7.40;99.90;;;;;;4999033;28;20038;-78
2022/11/28 08:39:34;;;;;;;0.70;0.70;;;7.40;99.90;;;;;;4989434;28;20045;-78
2022/11/28 08:42:00;;;;;;;0.47;0.47;;;7.40;99.90;;;;;;5006179;28;20037;-80
2022/11/28 08:44:26;;;;;;;1.65;1.48;;;7.40;99.90;;;;;;4988107;28;20471;-80
2022/11/28 08:46:53;;;;;;;0.60;0.60;;;7.40;99.90;;;;;;5022516;28;20073;-77
2022/11/28 08:49:18;;;;;;;;;;;7.40;99.90;;;;;;4992803;28;20471;-79
2022/11/28 08:51:44;;;;;;;0.40;0.40;;;7.40;99.90;;;;;;5006451;28;20060;-80
2022/11/28 08:54:10;;;;;;;1.25;1.23;;;7.40;99.90;;;;;;5006800;28;20116;-79
2022/11/28 08:56:35;;;;;;;0.50;0.50;;;7.40;99.90;;;;;;5006835;28;20057;-80
2022/11/28 08:59:02;;;;;;;1.42;1.42;;;7.40;99.90;;;;;;5004670;28;20058;-79
2022/11/28 09:01:27;;;;;;;0.40;0.40;;;7.40;99.90;;;;;;5009394;28;20052;-82
2022/11/28 09:03:55;;;;;;;0.52;0.52;;;7.50;99.90;;;;;;5024574;28;20038;-80
2022/11/28 09:06:21;;;;;;;0.70;0.70;;;7.50;99.90;;;;;;5008153;28;20415;-80
2022/11/28 09:08:48;;;;;;;0.73;0.73;;;7.50;99.90;;;;;;5009289;28;20053;-79
2022/11/28 09:11:17;;;;;;;0.50;0.50;;;7.50;99.90;;;;;;5023395;28;20061;-81
2022/11/28 09:13:43;;;;;;;0.55;0.55;;;7.50;99.90;;;;;;5009318;28;20041;-81
2022/11/28 09:16:09;;;;;;;0.85;0.85;;;7.50;99.90;;;;;;5009216;28;20042;-79
2022/11/28 09:18:35;;;;;;;0.63;0.63;;;7.50;99.90;;;;;;5008576;28;20052;-82
2022/11/28 09:21:08;;;;;;;3.83;2.72;;;7.50;99.90;;;;;;5006526;28;20046;-79
2022/11/28 09:23:34;;;;;;;0.70;0.70;;;7.50;99.90;;;;;;4994969;28;20125;-82
2022/11/28 09:26:00;;;;;;;0.50;0.50;;;7.60;99.90;;;;;;5000630;28;20096;-81
2022/11/28 09:28:27;;;;;;;0.50;0.50;;;7.60;99.90;;;;;;5010471;28;20049;-77
2022/11/28 09:31:03;;;;;;;0.68;0.68;;;7.60;99.90;;;;;;5006675;28;20403;-78
2022/11/28 09:33:29;;;;;;;0.50;0.50;;;7.60;99.90;;;;;;5024097;28;21752;-77
2022/11/28 09:35:57;;;;;;;0.50;0.50;;;7.60;99.90;;;;;;4992997;28;20042;-81
2022/11/28 09:38:23;;;;;;;0.60;0.60;;;7.60;99.90;;;;;;5006335;28;20104;-78
2022/11/28 09:40:50;;;;;;;1.00;1.00;;;7.60;99.90;;;;;;5005110;28;20053;-79
2022/11/28 09:43:34;;;;;;;0.75;0.75;;;7.60;99.90;;;;;;5007211;28;20124;-78
2022/11/28 09:46:04;;;;;;;2.25;2.15;;;7.60;99.90;;;;;;5004626;28;20037;-78
2022/11/28 09:48:38;;;;;;;0.60;0.60;;;7.70;99.90;;;;;;5005467;28;20044;-80
2022/11/28 09:51:23;;;;;;;0.60;0.60;;;7.70;99.90;;;;;;5007015;28;20056;-79
2022/11/28 09:54:24;;;;;;;0.65;0.65;;;7.70;99.90;;;;;;5006709;28;20034;-79
2022/11/28 09:56:51;;;;;;;0.50;0.50;;;7.70;99.90;;;;;;5006323;28;20041;-79
2022/11/28 09:59:24;;;;;;;0.47;0.47;;;7.80;99.90;;;;;;5024742;28;20053;-77
2022/11/28 10:02:12;;;;;;;0.40;0.40;;;7.80;99.90;;;;;;5006610;28;20053;-78
2022/11/28 10:05:04;;;;;;;0.50;0.50;;;7.80;99.90;;;;;;5002554;28;20132;-78
2022/11/28 10:07:50;;;;;;;0.45;0.45;;;7.80;99.90;;;;;;4972325;28;20100;-80
2022/11/28 10:10:34;;;;;;;1.05;1.02;;;7.80;99.90;;;;;;5009152;28;20109;-78
2022/11/28 10:13:03;;;;;;;0.60;0.60;;;7.80;99.90;;;;;;5001045;28;20056;-77
2022/11/28 10:16:00;;;;;;;0.50;0.50;;;7.80;99.90;;;;;;4996082;28;20121;-78
2022/11/28 10:18:38;;;;;;;0.50;0.50;;;7.80;99.90;;;;;;5004942;28;20411;-77
2022/11/28 10:21:20;;;;;;;0.40;0.40;;;7.90;99.90;;;;;;5019396;28;20057;-79
2022/11/28 10:23:46;;;;;;;2.03;0.85;;;7.90;99.90;;;;;;4997107;28;20042;-78
2022/11/28 10:26:39;;;;;;;0.50;0.50;;;7.80;99.90;;;;;;4979438;28;20048;-79
2022/11/28 10:29:44;;;;;;;0.50;0.50;;;7.90;99.90;;;;;;4975085;28;20479;-80
2022/11/28 10:32:15;;;;;;;0.40;0.40;;;7.90;99.90;;;;;;4977363;28;20045;-80
2022/11/28 10:34:55;;;;;;;0.52;0.52;;;7.90;99.90;;;;;;4982633;28;20038;-78
2022/11/28 10:37:25;;;;;;;0.50;0.50;;;7.80;99.90;;;;;;4987444;28;20123;-78
2022/11/28 10:39:51;;;;;;;0.63;0.63;;;7.90;99.90;;;;;;4980922;28;20049;-79
2022/11/28 10:42:20;;;;;;;;;;;7.90;99.90;;;;;;4978987;28;20042;-79
2022/11/28 10:45:14;;;;;;;0.77;0.77;;;8.00;99.90;;;;;;4974487;28;20005;-79
2022/11/28 10:47:58;;;;;;;0.65;0.65;;;8.00;99.90;;;;;;4975770;28;20438;-80
2022/11/28 10:50:38;;;;;;;0.52;0.52;;;8.00;99.90;;;;;;4992744;28;20046;-79
2022/11/28 10:53:37;;;;;;;1.35;1.35;;;8.10;99.90;;;;;;4991710;28;20516;-79
2022/11/28 10:56:35;;;;;;;0.70;0.70;;;8.20;99.90;;;;;;4993849;28;20476;-79
2022/11/28 10:59:08;;;;;;;0.60;0.60;;;8.10;99.90;;;;;;4994764;28;20073;-78
2022/11/28 11:01:37;;;;;;;0.68;0.68;;;8.00;99.90;;;;;;5000098;28;20479;-77
2022/11/28 11:04:04;;;;;;;0.57;0.57;;;8.10;99.90;;;;;;4994492;28;20042;-79
2022/11/28 11:06:30;;;;;;;0.68;0.68;;;8.10;99.90;;;;;;4978789;28;20073;-78
2022/11/28 11:08:55;;;;;;;0.50;0.50;;;8.20;99.90;;;;;;4977338;28;20156;-81
2022/11/28 11:11:26;;;;;;;0.55;0.55;;;8.20;99.90;;;;;;4993511;28;20391;-80
2022/11/28 11:13:57;;;;;;;0.50;0.50;;;8.30;99.90;;;;;;4993820;28;20045;-79
2022/11/28 11:16:22;;;;;;;0.93;0.93;;;8.30;99.90;;;;;;4977705;28;20038;-78
2022/11/28 11:18:48;;;;;;;0.40;0.40;;;8.30;99.90;;;;;;5002492;28;20167;-79
2022/11/28 11:21:20;;;;;;;0.60;0.60;;;8.30;99.90;;;;;;4987924;28;20060;-78
2022/11/28 11:23:47;;;;;;;1.05;1.05;;;8.30;99.90;;;;;;5010381;28;20054;-78
2022/11/28 11:26:24;;;;;;;0.40;0.40;;;8.30;99.90;;;;;;4989755;28;20057;-77
2022/11/28 11:28:50;;;;;;;;;;;8.30;99.90;;;;;;4999110;28;20452;-79
2022/11/28 11:31:26;;;;;;;0.50;0.50;;;8.30;99.90;;;;;;5003258;28;20354;-78
2022/11/28 11:34:01;;;;;;;0.50;0.50;;;8.30;99.90;;;;;;5003328;28;20133;-78
2022/11/28 11:36:35;;;;;;;0.60;0.60;;;8.40;99.90;;;;;;5003091;28;20133;-79
2022/11/28 11:39:04;;;;;;;0.50;0.50;;;8.40;99.90;;;;;;4989436;28;20486;-78
2022/11/28 11:41:31;;;;;;;0.55;0.55;;;8.40;99.90;;;;;;5008302;28;20049;-79
2022/11/28 11:44:28;;;;;;;0.40;0.40;;;8.40;99.90;;;;;;5007578;28;20145;-79
2022/11/28 11:47:07;;;;;;;0.50;0.50;;;8.40;99.90;;;;;;5005553;28;20103;-79
2022/11/28 11:49:47;;;;;;;0.70;0.70;;;8.50;99.90;;;;;;4998118;28;20128;-77
2022/11/28 11:52:24;;;;;;;0.40;0.40;;;8.50;99.90;;;;;;4997031;28;20050;-77
2022/11/28 11:54:56;;;;;;;0.47;0.47;;;8.60;99.90;;;;;;4982275;28;20054;-77
2022/11/28 11:57:52;;;;;;;0.40;0.40;;;8.60;99.90;;;;;;4988643;28;20041;-78
2022/11/28 12:00:19;;;;;;;0.30;0.30;;;8.60;99.90;;;;;;4975129;28;20944;-79
2022/11/28 12:02:56;;;;;;;0.70;0.70;;;8.70;99.90;;;;;;4993462;28;20076;-78
2022/11/28 12:05:37;;;;;;;0.40;0.40;;;8.70;99.90;;;;;;4989945;28;20050;-77
2022/11/28 12:08:11;;;;;;;0.45;0.45;;;8.70;99.90;;;;;;4993685;28;21705;-77
2022/11/28 12:10:54;;;;;;;0.50;0.50;;;8.80;99.90;;;;;;4993263;28;20038;-77
2022/11/28 12:13:22;;;;;;;0.60;0.60;;;8.80;99.90;;;;;;4981651;28;20050;-77
2022/11/28 12:16:33;;;;;;;0.40;0.40;;;8.80;99.90;;;;;;4980048;28;20046;-77
2022/11/28 12:19:46;;;;;;;0.40;0.40;;;8.80;99.90;;;;;;4992340;28;20050;-77
2022/11/28 12:22:27;;;;;;;0.47;0.47;;;9.20;99.90;;;;;;4939759;28;20180;-79
2022/11/28 12:25:29;;;;;;;0.57;0.57;;;8.80;99.90;;;;;;4985452;28;20107;-78
2022/11/28 12:28:09;;;;;;;0.32;0.32;;;8.80;99.90;;;;;;4988726;28;20038;-77
2022/11/28 12:30:53;;;;;;;0.60;0.60;;;8.80;99.90;;;;;;5008693;28;20061;-79
2022/11/28 12:33:24;;;;;;;0.70;0.70;;;8.80;99.90;;;;;;4993475;28;20396;-77
2022/11/28 12:36:09;;;;;;;0.38;0.38;;;8.80;99.90;;;;;;4993524;28;20465;-77
2022/11/28 12:38:56;;;;;;;0.60;0.60;;;8.90;99.90;;;;;;4992424;28;20038;-77
2022/11/28 12:41:42;;;;;;;0.50;0.50;;;8.90;99.90;;;;;;4990872;28;20488;-78
2022/11/28 12:44:47;;;;;;;0.57;0.57;;;8.90;99.90;;;;;;5001609;28;21160;-76
2022/11/28 12:47:54;;;;;;;0.60;0.60;;;8.90;99.90;;;;;;5004239;28;20130;-77
2022/11/28 12:50:50;;;;;;;0.30;0.30;;;9.00;99.90;;;;;;4967524;28;20046;-79
2022/11/28 12:53:37;;;;;;;0.43;0.43;;;9.00;99.90;;;;;;4967308;28;20686;-78
2022/11/28 12:56:13;;;;;;;0.40;0.40;;;9.00;99.90;;;;;;4991779;28;20049;-77
2022/11/28 12:59:05;;;;;;;0.50;0.50;;;9.00;99.90;;;;;;5003064;28;20463;-79
2022/11/28 13:01:40;;;;;;;0.40;0.40;;;9.00;99.90;;;;;;5009459;28;20104;-79
2022/11/28 13:04:36;;;;;;;0.40;0.40;;;9.00;99.90;;;;;;5008843;28;20046;-78
2022/11/28 13:07:05;;;;;;;0.60;0.60;;;9.00;99.90;;;;;;5024176;28;20049;-80
2022/11/28 13:09:37;;;;;;;0.60;0.60;;;8.90;99.90;;;;;;5008785;28;20129;-77
2022/11/28 13:12:06;;;;;;;0.93;0.93;;;8.90;99.90;;;;;;4990913;28;20034;-77
2022/11/28 13:14:53;;;;;;;0.43;0.43;;;8.90;99.90;;;;;;5008795;28;20061;-76
2022/11/28 13:17:24;;;;;;;0.45;0.45;;;8.90;99.90;;;;;;5007692;28;20061;-77
2022/11/28 13:20:14;;;;;;;0.40;0.40;;;8.90;99.90;;;;;;5016559;28;20065;-76
2022/11/28 13:23:07;;;;;;;1.15;0.95;;;8.90;99.90;;;;;;5022949;28;20038;-79
2022/11/28 13:25:47;;;;;;;0.47;0.47;;;8.90;99.90;;;;;;5005169;28;20048;-77
2022/11/28 13:28:37;;;;;;;0.30;0.30;;;8.90;99.90;;;;;;5023915;28;20430;-78
2022/11/28 13:31:17;;;;;;;0.50;0.50;;;8.90;99.90;;;;;;5007781;28;20045;-77